Nearby METAR Reports

 

EGTE - Exeter Airport, United Kingdom
Distance from station: S 19km
Updated: 24/07/2021 16:50
NOT Current
Mostly cloudy
Mostly cloudy
 Wind from N
Wind: N 9 km/h
Temperature: 20°C
Dew Point: 17°C
Humidity: 83%
Barometer: 1007 hPa
Clouds: Mostly cloudy
Visibility: 10 km
Cloud details: Few Clouds 366 m
Mostly cloudy 762 m
2021/07/24 15:50 EGTE 241550Z 36005KT 330V040 9999 FEW012 BKN025TCU 20/17 Q1007
EGDY - Yeovilton (navy), United Kingdom
Distance from station: ENE 55km
Updated: 24/07/2021 23:50
Few Clouds
Few Clouds
 Wind from N
Wind: N 9 km/h
Temperature: 18°C
Dew Point: 16°C
Humidity: 88%
Barometer: 1007 hPa
Clouds: Few Clouds
Visibility: 10 km
Cloud details: Few Clouds 3048 m
2021/07/24 22:50 EGDY 242250Z AUTO 36005KT 9999 FEW100/// 18/16 Q1007
 
EGFF - Cardiff-Wales Ar, United Kingdom
Distance from station: N 56km
Updated: 25/07/2021 00:50
Light rain, Clear
Light rain, Clear
 Wind from NNE
Wind: NNE 15 km/h
Temperature: 17°C
Dew Point: 15°C
Humidity: 88%
Barometer: 1008 hPa
Summary: Light rain
Clouds: Clear
Visibility: 10 km
2021/07/24 23:50 EGFF 242350Z AUTO 03008KT 9999 -RA NCD 17/15 Q1008 RERA
EGDX - St Athan Raf, United Kingdom
Distance from station: N 58km
Updated: 01/04/2019 13:50
NOT Current
Clear
Clear
 Wind from E
Wind: E 15 km/h
Temperature: 11°C
Dew Point: 5°C
Humidity: 67%
Barometer: 1019 hPa
Clouds: Clear
Visibility: 10 km
2019/04/01 12:50 EGDX 011250Z AUTO 10008KT 9999 NCD 11/05 Q1019
 
EGGD - Bristol/Lulsgate, United Kingdom
Distance from station: NE 71km
Updated: 25/07/2021 00:50
Mostly cloudy
Mostly cloudy
 Wind from NNE
Wind: NNE 19 km/h
Temperature: 17°C
Dew Point: 14°C
Humidity: 83%
Barometer: 1008 hPa
Clouds: Mostly cloudy
Visibility: 10 km
Cloud details: Mostly cloudy 518 m
Mostly cloudy 671 m
Mostly cloudy 914 m
2021/07/24 23:50 EGGD 242350Z AUTO 03010KT 9999 BKN017 BKN022 BKN030 17/14 Q1008